sensor_id;sensor_type;location;lat;lon;timestamp;pressure;altitude;pressure_sealevel;temperature;humidity
84815;BME280;75050;53.190;5.562;2024-03-02T00:00:20;99992.81;;;10.07;84.91
84815;BME280;75050;53.190;5.562;2024-03-02T00:02:50;99994.56;;;10.07;84.96
84815;BME280;75050;53.190;5.562;2024-03-02T00:05:18;99988.31;;;10.09;84.88
84815;BME280;75050;53.190;5.562;2024-03-02T00:07:54;99973.34;;;10.00;84.69
84815;BME280;75050;53.190;5.562;2024-03-02T00:10:24;99988.63;;;10.05;84.67
84815;BME280;75050;53.190;5.562;2024-03-02T00:12:54;99981.69;;;10.05;84.80
84815;BME280;75050;53.190;5.562;2024-03-02T00:18:14;99977.72;;;10.00;84.78
84815;BME280;75050;53.190;5.562;2024-03-02T00:20:41;99993.63;;;10.08;84.74
84815;BME280;75050;53.190;5.562;2024-03-02T00:23:08;99974.50;;;9.96;84.83
84815;BME280;75050;53.190;5.562;2024-03-02T00:25:41;99985.09;;;10.06;84.91
84815;BME280;75050;53.190;5.562;2024-03-02T00:28:31;99977.28;;;10.06;84.59
84815;BME280;75050;53.190;5.562;2024-03-02T00:31:08;99969.50;;;10.06;84.72
84815;BME280;75050;53.190;5.562;2024-03-02T00:33:40;99964.81;;;9.98;84.67
84815;BME280;75050;53.190;5.562;2024-03-02T00:36:06;99970.41;;;10.05;84.65
84815;BME280;75050;53.190;5.562;2024-03-02T00:38:33;99969.69;;;10.03;84.68
84815;BME280;75050;53.190;5.562;2024-03-02T00:41:02;99950.38;;;9.95;84.59
84815;BME280;75050;53.190;5.562;2024-03-02T00:45:54;99960.44;;;9.99;84.48
84815;BME280;75050;53.190;5.562;2024-03-02T00:48:20;99956.78;;;10.01;84.56
84815;BME280;75050;53.190;5.562;2024-03-02T00:50:45;99960.09;;;10.03;84.42
84815;BME280;75050;53.190;5.562;2024-03-02T00:53:12;99951.56;;;10.01;84.62
84815;BME280;75050;53.190;5.562;2024-03-02T00:55:37;99961.97;;;10.01;84.46
84815;BME280;75050;53.190;5.562;2024-03-02T00:58:03;99955.03;;;10.02;84.41
84815;BME280;75050;53.190;5.562;2024-03-02T01:00:28;99961.97;;;10.01;84.36
84815;BME280;75050;53.190;5.562;2024-03-02T01:02:54;99965.44;;;10.02;84.46
84815;BME280;75050;53.190;5.562;2024-03-02T01:05:19;99956.50;;;9.94;84.54
84815;BME280;75050;53.190;5.562;2024-03-02T01:07:45;99970.75;;;10.00;84.45
84815;BME280;75050;53.190;5.562;2024-03-02T01:10:11;99957.22;;;9.95;84.41
84815;BME280;75050;53.190;5.562;2024-03-02T01:12:37;99975.31;;;9.97;84.46
84815;BME280;75050;53.190;5.562;2024-03-02T01:15:02;99977.72;;;10.00;84.55
84815;BME280;75050;53.190;5.562;2024-03-02T01:17:31;99969.59;;;9.92;84.32
84815;BME280;75050;53.190;5.562;2024-03-02T01:19:56;99980.44;;;9.98;84.25
84815;BME280;75050;53.190;5.562;2024-03-02T01:22:22;99952.75;;;9.85;84.38
84815;BME280;75050;53.190;5.562;2024-03-02T01:24:50;99981.34;;;9.97;84.67
84815;BME280;75050;53.190;5.562;2024-03-02T01:27:15;99996.88;;;9.99;84.43
84815;BME280;75050;53.190;5.562;2024-03-02T01:29:41;99992.00;;;9.95;84.46
84815;BME280;75050;53.190;5.562;2024-03-02T01:32:06;99989.16;;;9.97;84.29
84815;BME280;75050;53.190;5.562;2024-03-02T01:34:32;99986.56;;;9.97;84.34
84815;BME280;75050;53.190;5.562;2024-03-02T01:36:57;99988.84;;;9.90;84.45
84815;BME280;75050;53.190;5.562;2024-03-02T01:39:22;99998.75;;;9.97;84.49
84815;BME280;75050;53.190;5.562;2024-03-02T01:41:48;99975.91;;;9.88;84.44
84815;BME280;75050;53.190;5.562;2024-03-02T01:44:13;99982.31;;;9.96;84.37
84815;BME280;75050;53.190;5.562;2024-03-02T01:46:38;99996.13;;;9.97;84.34
84815;BME280;75050;53.190;5.562;2024-03-02T01:49:04;99984.78;;;9.86;84.47
84815;BME280;75050;53.190;5.562;2024-03-02T01:51:30;99997.91;;;9.96;84.29
84815;BME280;75050;53.190;5.562;2024-03-02T01:53:55;99981.69;;;9.93;84.38
84815;BME280;75050;53.190;5.562;2024-03-02T01:56:22;99958.25;;;9.81;84.38
84815;BME280;75050;53.190;5.562;2024-03-02T01:58:48;99979.72;;;9.96;84.35
84815;BME280;75050;53.190;5.562;2024-03-02T02:01:13;99989.25;;;9.96;84.46
84815;BME280;75050;53.190;5.562;2024-03-02T02:03:39;99996.25;;;9.95;84.40
84815;BME280;75050;53.190;5.562;2024-03-02T02:06:05;100003.22;;;9.95;84.38
84815;BME280;75050;53.190;5.562;2024-03-02T02:08:32;100006.66;;;9.95;84.43
84815;BME280;75050;53.190;5.562;2024-03-02T02:10:57;100001.53;;;9.94;84.28
84815;BME280;75050;53.190;5.562;2024-03-02T02:13:23;99985.09;;;9.94;84.39
84815;BME280;75050;53.190;5.562;2024-03-02T02:15:49;99974.59;;;9.95;84.32
84815;BME280;75050;53.190;5.562;2024-03-02T02:18:14;99974.59;;;9.95;84.38
84815;BME280;75050;53.190;5.562;2024-03-02T02:20:40;99970.31;;;9.94;84.56
84815;BME280;75050;53.190;5.562;2024-03-02T02:23:05;99971.38;;;9.92;84.46
84815;BME280;75050;53.190;5.562;2024-03-02T02:25:33;99985.94;;;9.94;84.33
84815;BME280;75050;53.190;5.562;2024-03-02T02:27:59;99981.78;;;9.92;84.29
84815;BME280;75050;53.190;5.562;2024-03-02T02:30:29;99989.38;;;9.95;84.45
84815;BME280;75050;53.190;5.562;2024-03-02T02:32:55;99985.94;;;9.94;84.45
84815;BME280;75050;53.190;5.562;2024-03-02T02:35:21;99958.88;;;9.84;84.21
84815;BME280;75050;53.190;5.562;2024-03-02T02:37:47;99966.91;;;9.94;84.55
84815;BME280;75050;53.190;5.562;2024-03-02T02:40:14;99975.00;;;9.89;84.48
84815;BME280;75050;53.190;5.562;2024-03-02T02:42:39;99973.41;;;9.87;84.37
84815;BME280;75050;53.190;5.562;2024-03-02T02:45:06;99972.41;;;9.89;84.37
84815;BME280;75050;53.190;5.562;2024-03-02T02:47:31;99973.06;;;9.93;84.55
84815;BME280;75050;53.190;5.562;2024-03-02T02:50:00;99973.31;;;9.88;84.38
84815;BME280;75050;53.190;5.562;2024-03-02T02:52:31;99966.03;;;9.81;84.62
84815;BME280;75050;53.190;5.562;2024-03-02T02:54:58;99991.38;;;9.91;84.15
84815;BME280;75050;53.190;5.562;2024-03-02T02:57:23;99994.78;;;9.92;84.41
84815;BME280;75050;53.190;5.562;2024-03-02T02:59:48;100001.78;;;9.91;84.46
84815;BME280;75050;53.190;5.562;2024-03-02T03:02:14;99997.06;;;9.84;84.34
84815;BME280;75050;53.190;5.562;2024-03-02T03:04:40;100002.75;;;9.89;84.56
84815;BME280;75050;53.190;5.562;2024-03-02T03:07:05;100018.50;;;9.87;84.30
84815;BME280;75050;53.190;5.562;2024-03-02T03:09:31;100024.31;;;9.91;84.42
84815;BME280;75050;53.190;5.562;2024-03-02T03:11:57;100029.63;;;9.89;84.39
84815;BME280;75050;53.190;5.562;2024-03-02T03:14:22;100018.59;;;9.86;84.54
84815;BME280;75050;53.190;5.562;2024-03-02T03:16:47;100013.16;;;9.89;84.42
84815;BME280;75050;53.190;5.562;2024-03-02T03:19:13;100005.69;;;9.84;84.34
84815;BME280;75050;53.190;5.562;2024-03-02T03:21:39;99994.75;;;9.79;84.35
84815;BME280;75050;53.190;5.562;2024-03-02T03:24:04;100027.13;;;9.88;84.26
84815;BME280;75050;53.190;5.562;2024-03-02T03:26:30;100029.81;;;9.86;84.52
84815;BME280;75050;53.190;5.562;2024-03-02T03:28:55;100012.44;;;9.87;84.47
84815;BME280;75050;53.190;5.562;2024-03-02T03:31:20;100031.91;;;9.81;84.37
84815;BME280;75050;53.190;5.562;2024-03-02T03:33:47;100046.25;;;9.87;84.37
84815;BME280;75050;53.190;5.562;2024-03-02T03:36:12;100037.00;;;9.83;84.27
84815;BME280;75050;53.190;5.562;2024-03-02T03:38:37;100049.81;;;9.86;84.35
84815;BME280;75050;53.190;5.562;2024-03-02T03:41:03;100044.72;;;9.84;84.52
84815;BME280;75050;53.190;5.562;2024-03-02T03:43:28;100054.28;;;9.84;84.34
84815;BME280;75050;53.190;5.562;2024-03-02T03:45:54;100063.75;;;9.85;84.35
84815;BME280;75050;53.190;5.562;2024-03-02T03:48:19;100056.25;;;9.80;84.18
84815;BME280;75050;53.190;5.562;2024-03-02T03:50:45;100058.88;;;9.80;84.38
84815;BME280;75050;53.190;5.562;2024-03-02T03:53:10;100062.09;;;9.84;84.38
84815;BME280;75050;53.190;5.562;2024-03-02T03:55:35;100069.03;;;9.83;84.32
84815;BME280;75050;53.190;5.562;2024-03-02T03:58:01;100069.03;;;9.83;84.66
84815;BME280;75050;53.190;5.562;2024-03-02T04:00:26;100064.78;;;9.82;84.54
84815;BME280;75050;53.190;5.562;2024-03-02T04:02:51;100079.59;;;9.82;84.32
84815;BME280;75050;53.190;5.562;2024-03-02T04:05:17;100072.69;;;9.81;84.33
84815;BME280;75050;53.190;5.562;2024-03-02T04:07:42;100068.44;;;9.80;84.35
84815;BME280;75050;53.190;5.562;2024-03-02T04:10:09;100067.50;;;9.81;84.24
84815;BME280;75050;53.190;5.562;2024-03-02T04:12:36;100055.63;;;9.77;84.27
84815;BME280;75050;53.190;5.562;2024-03-02T04:15:03;100057.41;;;9.76;84.27
84815;BME280;75050;53.190;5.562;2024-03-02T04:17:29;100052.00;;;9.67;84.64
84815;BME280;75050;53.190;5.562;2024-03-02T04:19:54;100076.25;;;9.80;84.40
84815;BME280;75050;53.190;5.562;2024-03-02T04:22:20;100068.53;;;9.78;83.83
84815;BME280;75050;53.190;5.562;2024-03-02T04:24:45;100073.75;;;9.78;84.36
84815;BME280;75050;53.190;5.562;2024-03-02T04:27:10;100073.84;;;9.77;84.77
84815;BME280;75050;53.190;5.562;2024-03-02T04:29:35;100083.31;;;9.78;84.43
84815;BME280;75050;53.190;5.562;2024-03-02T04:32:01;100085.94;;;9.78;84.48
84815;BME280;75050;53.190;5.562;2024-03-02T04:34:26;100090.28;;;9.77;84.41
84815;BME280;75050;53.190;5.562;2024-03-02T04:36:53;100092.16;;;9.75;84.36
84815;BME280;75050;53.190;5.562;2024-03-02T04:39:18;100093.72;;;9.78;84.21
84815;BME280;75050;53.190;5.562;2024-03-02T04:41:43;100090.59;;;9.73;84.29
84815;BME280;75050;53.190;5.562;2024-03-02T04:44:09;100093.91;;;9.75;84.53
84815;BME280;75050;53.190;5.562;2024-03-02T04:46:34;100098.16;;;9.76;84.56
84815;BME280;75050;53.190;5.562;2024-03-02T04:48:59;100105.16;;;9.75;84.40
84815;BME280;75050;53.190;5.562;2024-03-02T04:51:25;100110.34;;;9.75;84.43
84815;BME280;75050;53.190;5.562;2024-03-02T04:53:50;100106.09;;;9.74;84.42
84815;BME280;75050;53.190;5.562;2024-03-02T04:56:15;100109.53;;;9.75;84.42
84815;BME280;75050;53.190;5.562;2024-03-02T04:58:56;100113.06;;;9.74;84.45
84815;BME280;75050;53.190;5.562;2024-03-02T05:01:21;100107.84;;;9.74;84.32
84815;BME280;75050;53.190;5.562;2024-03-02T05:03:47;100109.81;;;9.70;84.34
84815;BME280;75050;53.190;5.562;2024-03-02T05:06:12;100114.09;;;9.71;84.64
84815;BME280;75050;53.190;5.562;2024-03-02T05:08:37;100107.53;;;9.66;84.38
84815;BME280;75050;53.190;5.562;2024-03-02T05:11:03;100114.09;;;9.71;84.36
84815;BME280;75050;53.190;5.562;2024-03-02T05:13:46;100116.06;;;9.68;84.59
84815;BME280;75050;53.190;5.562;2024-03-02T05:16:12;100127.19;;;9.70;84.43
84815;BME280;75050;53.190;5.562;2024-03-02T05:18:37;100122.22;;;9.67;84.30
84815;BME280;75050;53.190;5.562;2024-03-02T05:21:03;100124.09;;;9.65;84.65
84815;BME280;75050;53.190;5.562;2024-03-02T05:23:28;100139.47;;;9.68;84.33
84815;BME280;75050;53.190;5.562;2024-03-02T05:25:54;100133.44;;;9.67;84.30
84815;BME280;75050;53.190;5.562;2024-03-02T05:28:19;100130.31;;;9.62;84.40
84815;BME280;75050;53.190;5.562;2024-03-02T05:30:44;100130.53;;;9.59;84.38
84815;BME280;75050;53.190;5.562;2024-03-02T05:33:10;100143.94;;;9.66;84.60
84815;BME280;75050;53.190;5.562;2024-03-02T05:35:35;100135.72;;;9.59;84.37
84815;BME280;75050;53.190;5.562;2024-03-02T05:38:01;100150.09;;;9.65;84.57
84815;BME280;75050;53.190;5.562;2024-03-02T05:40:26;100141.53;;;9.63;84.33
84815;BME280;75050;53.190;5.562;2024-03-02T05:42:51;100144.13;;;9.63;84.42
84815;BME280;75050;53.190;5.562;2024-03-02T05:45:17;100124.44;;;9.47;84.47
84815;BME280;75050;53.190;5.562;2024-03-02T05:47:42;100139.97;;;9.60;84.39
84815;BME280;75050;53.190;5.562;2024-03-02T05:50:08;100146.94;;;9.60;84.42
84815;BME280;75050;53.190;5.562;2024-03-02T05:52:33;100133.63;;;9.52;84.40
84815;BME280;75050;53.190;5.562;2024-03-02T05:54:58;100150.47;;;9.59;84.29
84815;BME280;75050;53.190;5.562;2024-03-02T05:57:24;100154.00;;;9.58;84.50
84815;BME280;75050;53.190;5.562;2024-03-02T06:00:09;100161.09;;;9.56;84.59
84815;BME280;75050;53.190;5.562;2024-03-02T06:02:34;100161.09;;;9.56;84.36
84815;BME280;75050;53.190;5.562;2024-03-02T06:05:02;100166.28;;;9.56;84.36
84815;BME280;75050;53.190;5.562;2024-03-02T06:07:29;100171.50;;;9.56;84.22
84815;BME280;75050;53.190;5.562;2024-03-02T06:09:54;100143.16;;;9.39;84.40
84815;BME280;75050;53.190;5.562;2024-03-02T06:12:20;100165.75;;;9.51;84.53
84815;BME280;75050;53.190;5.562;2024-03-02T06:14:45;100168.25;;;9.53;84.29
84815;BME280;75050;53.190;5.562;2024-03-02T06:17:11;100170.84;;;9.53;84.17
84815;BME280;75050;53.190;5.562;2024-03-02T06:19:36;100173.44;;;9.53;84.31
84815;BME280;75050;53.190;5.562;2024-03-02T06:22:02;100147.78;;;9.34;84.26
84815;BME280;75050;53.190;5.562;2024-03-02T06:24:27;100165.19;;;9.46;84.12
84815;BME280;75050;53.190;5.562;2024-03-02T06:26:52;100180.50;;;9.51;84.41
84815;BME280;75050;53.190;5.562;2024-03-02T06:29:18;100177.28;;;9.47;84.39
84815;BME280;75050;53.190;5.562;2024-03-02T06:31:43;100176.53;;;9.45;84.32
84815;BME280;75050;53.190;5.562;2024-03-02T06:34:09;100188.50;;;9.48;84.46
84815;BME280;75050;53.190;5.562;2024-03-02T06:36:34;100193.69;;;9.48;84.42
84815;BME280;75050;53.190;5.562;2024-03-02T06:38:59;100204.09;;;9.48;84.46
84815;BME280;75050;53.190;5.562;2024-03-02T06:41:25;100199.00;;;9.46;84.32
84815;BME280;75050;53.190;5.562;2024-03-02T06:43:51;100205.13;;;9.45;84.43
84815;BME280;75050;53.190;5.562;2024-03-02T06:46:24;100211.16;;;9.46;84.39
84815;BME280;75050;53.190;5.562;2024-03-02T06:48:49;100199.94;;;9.45;84.44
84815;BME280;75050;53.190;5.562;2024-03-02T06:51:15;100203.47;;;9.44;84.29
84815;BME280;75050;53.190;5.562;2024-03-02T06:53:41;100202.63;;;9.44;84.65
84815;BME280;75050;53.190;5.562;2024-03-02T06:56:07;100207.28;;;9.39;84.38
84815;BME280;75050;53.190;5.562;2024-03-02T06:58:33;100196.97;;;9.37;84.30
84815;BME280;75050;53.190;5.562;2024-03-02T07:00:58;100215.72;;;9.42;84.36
84815;BME280;75050;53.190;5.562;2024-03-02T07:03:25;100219.25;;;9.41;84.24
84815;BME280;75050;53.190;5.562;2024-03-02T07:05:52;100219.25;;;9.41;84.39
84815;BME280;75050;53.190;5.562;2024-03-02T07:08:17;100213.22;;;9.41;84.47
84815;BME280;75050;53.190;5.562;2024-03-02T07:10:43;100209.97;;;9.37;84.34
84815;BME280;75050;53.190;5.562;2024-03-02T07:13:08;100222.78;;;9.40;84.53
84815;BME280;75050;53.190;5.562;2024-03-02T07:15:33;100226.22;;;9.41;84.35
84815;BME280;75050;53.190;5.562;2024-03-02T07:18:17;100226.13;;;9.42;84.45
84815;BME280;75050;53.190;5.562;2024-03-02T07:20:42;100226.13;;;9.42;84.39
84815;BME280;75050;53.190;5.562;2024-03-02T07:23:07;100220.28;;;9.39;84.54
84815;BME280;75050;53.190;5.562;2024-03-02T07:25:34;100223.59;;;9.41;84.28
84815;BME280;75050;53.190;5.562;2024-03-02T07:27:59;100225.13;;;9.45;84.48
84815;BME280;75050;53.190;5.562;2024-03-02T07:30:25;100230.09;;;9.48;84.34
84815;BME280;75050;53.190;5.562;2024-03-02T07:32:50;100219.25;;;9.41;84.47
84815;BME280;75050;53.190;5.562;2024-03-02T07:35:17;100233.44;;;9.50;84.96
84815;BME280;75050;53.190;5.562;2024-03-02T07:37:43;100242.63;;;9.55;84.75
84815;BME280;75050;53.190;5.562;2024-03-02T07:40:09;100238.16;;;9.57;84.20
84815;BME280;75050;53.190;5.562;2024-03-02T07:42:37;100244.94;;;9.59;84.59
84815;BME280;75050;53.190;5.562;2024-03-02T07:45:04;100249.00;;;9.63;84.55
84815;BME280;75050;53.190;5.562;2024-03-02T07:47:30;100252.25;;;9.67;84.63
84815;BME280;75050;53.190;5.562;2024-03-02T07:49:55;100248.63;;;9.69;84.45
84815;BME280;75050;53.190;5.562;2024-03-02T07:52:21;100252.78;;;9.72;84.54
84815;BME280;75050;53.190;5.562;2024-03-02T07:54:46;100251.84;;;9.73;84.50
84815;BME280;75050;53.190;5.562;2024-03-02T07:57:11;100250.53;;;9.80;84.55
84815;BME280;75050;53.190;5.562;2024-03-02T07:59:37;100255.53;;;9.83;84.59
84815;BME280;75050;53.190;5.562;2024-03-02T08:02:02;100243.97;;;9.87;84.54
84815;BME280;75050;53.190;5.562;2024-03-02T08:04:28;100252.66;;;9.87;84.39
84815;BME280;75050;53.190;5.562;2024-03-02T08:06:53;100254.78;;;9.95;84.44
84815;BME280;75050;53.190;5.562;2024-03-02T08:09:20;100261.47;;;9.98;84.44
84815;BME280;75050;53.190;5.562;2024-03-02T08:11:45;100246.97;;;9.95;84.25
84815;BME280;75050;53.190;5.562;2024-03-02T08:14:10;100260.97;;;10.06;84.49
84815;BME280;75050;53.190;5.562;2024-03-02T08:16:42;100257.13;;;10.11;84.49
84815;BME280;75050;53.190;5.562;2024-03-02T08:19:07;100266.41;;;10.15;84.44
84815;BME280;75050;53.190;5.562;2024-03-02T08:21:34;100266.94;;;10.20;84.45
84815;BME280;75050;53.190;5.562;2024-03-02T08:24:01;100272.66;;;10.25;84.39
84815;BME280;75050;53.190;5.562;2024-03-02T08:26:27;100275.91;;;10.29;84.82
84815;BME280;75050;53.190;5.562;2024-03-02T08:28:55;100268.00;;;10.30;84.30
84815;BME280;75050;53.190;5.562;2024-03-02T08:31:20;100263.44;;;10.33;84.19
84815;BME280;75050;53.190;5.562;2024-03-02T08:33:45;100281.78;;;10.44;84.22
84815;BME280;75050;53.190;5.562;2024-03-02T08:36:11;100275.53;;;10.47;84.28
84815;BME280;75050;53.190;5.562;2024-03-02T08:38:37;100274.09;;;10.55;84.33
84815;BME280;75050;53.190;5.562;2024-03-02T08:41:02;100275.75;;;10.56;84.24
84815;BME280;75050;53.190;5.562;2024-03-02T08:43:29;100267.50;;;10.62;84.11
84815;BME280;75050;53.190;5.562;2024-03-02T08:45:54;100282.84;;;10.67;84.07
84815;BME280;75050;53.190;5.562;2024-03-02T08:48:19;100281.69;;;10.71;83.85
84815;BME280;75050;53.190;5.562;2024-03-02T08:50:46;100280.78;;;10.72;83.83
84815;BME280;75050;53.190;5.562;2024-03-02T08:53:11;100253.97;;;10.57;83.60
84815;BME280;75050;53.190;5.562;2024-03-02T08:55:36;100279.72;;;10.74;83.69
84815;BME280;75050;53.190;5.562;2024-03-02T08:58:02;100283.88;;;10.76;83.70
84815;BME280;75050;53.190;5.562;2024-03-02T09:00:27;100288.19;;;10.77;83.53
84815;BME280;75050;53.190;5.562;2024-03-02T09:02:53;100289.00;;;10.78;83.42
84815;BME280;75050;53.190;5.562;2024-03-02T09:05:19;100296.63;;;10.81;83.40
84815;BME280;75050;53.190;5.562;2024-03-02T09:07:44;100297.44;;;10.81;83.32
84815;BME280;75050;53.190;5.562;2024-03-02T09:10:11;100300.06;;;10.81;83.46
84815;BME280;75050;53.190;5.562;2024-03-02T09:12:37;100292.25;;;10.81;83.33
84815;BME280;75050;53.190;5.562;2024-03-02T09:15:03;100294.84;;;10.81;83.30
84815;BME280;75050;53.190;5.562;2024-03-02T09:17:29;100298.38;;;10.80;83.17
84815;BME280;75050;53.190;5.562;2024-03-02T09:19:55;100301.69;;;10.82;82.73
84815;BME280;75050;53.190;5.562;2024-03-02T09:22:20;100292.25;;;10.81;83.14
84815;BME280;75050;53.190;5.562;2024-03-02T09:24:46;100294.94;;;10.80;83.14
84815;BME280;75050;53.190;5.562;2024-03-02T09:27:11;100273.16;;;10.69;82.97
84815;BME280;75050;53.190;5.562;2024-03-02T09:29:37;100286.19;;;10.81;83.05
84815;BME280;75050;53.190;5.562;2024-03-02T09:32:04;100287.22;;;10.78;82.90
84815;BME280;75050;53.190;5.562;2024-03-02T09:34:29;100293.88;;;10.82;82.77
84815;BME280;75050;53.190;5.562;2024-03-02T09:36:54;100269.50;;;10.71;82.90
84815;BME280;75050;53.190;5.562;2024-03-02T09:39:20;100298.19;;;10.83;83.02
84815;BME280;75050;53.190;5.562;2024-03-02T09:41:47;100297.44;;;10.81;83.04
84815;BME280;75050;53.190;5.562;2024-03-02T09:44:12;100298.06;;;10.85;83.12
84815;BME280;75050;53.190;5.562;2024-03-02T09:46:38;100297.53;;;10.80;82.99
84815;BME280;75050;53.190;5.562;2024-03-02T09:49:04;100316.31;;;10.85;82.94
84815;BME280;75050;53.190;5.562;2024-03-02T09:51:29;100306.72;;;10.85;82.91
84815;BME280;75050;53.190;5.562;2024-03-02T09:53:55;100306.91;;;10.82;82.92
84815;BME280;75050;53.190;5.562;2024-03-02T09:56:21;100317.97;;;10.86;82.97
84815;BME280;75050;53.190;5.562;2024-03-02T09:58:47;100324.97;;;10.85;83.25
84815;BME280;75050;53.190;5.562;2024-03-02T10:01:12;100330.09;;;10.87;82.89
84815;BME280;75050;53.190;5.562;2024-03-02T10:03:38;100327.38;;;10.88;83.01
84815;BME280;75050;53.190;5.562;2024-03-02T10:06:24;100318.84;;;10.86;83.02
84815;BME280;75050;53.190;5.562;2024-03-02T10:08:51;100319.13;;;10.82;82.85
84815;BME280;75050;53.190;5.562;2024-03-02T10:11:34;100332.59;;;10.88;82.97
84815;BME280;75050;53.190;5.562;2024-03-02T10:14:09;100326.66;;;10.86;82.85
84815;BME280;75050;53.190;5.562;2024-03-02T10:16:40;100305.38;;;10.80;82.93
84815;BME280;75050;53.190;5.562;2024-03-02T10:19:22;100326.31;;;10.91;82.92
84815;BME280;75050;53.190;5.562;2024-03-02T10:21:53;100321.31;;;10.88;82.78
84815;BME280;75050;53.190;5.562;2024-03-02T10:24:20;100318.41;;;10.92;82.88
84815;BME280;75050;53.190;5.562;2024-03-02T10:26:46;100320.06;;;10.93;82.79
84815;BME280;75050;53.190;5.562;2024-03-02T10:29:12;100320.91;;;10.94;82.91
84815;BME280;75050;53.190;5.562;2024-03-02T10:31:38;100324.34;;;10.94;82.92
84815;BME280;75050;53.190;5.562;2024-03-02T10:34:05;100315.81;;;10.92;82.96
84815;BME280;75050;53.190;5.562;2024-03-02T10:36:32;100317.34;;;10.95;82.82
84815;BME280;75050;53.190;5.562;2024-03-02T10:38:58;100312.97;;;10.95;83.05
84815;BME280;75050;53.190;5.562;2024-03-02T10:41:26;100313.19;;;10.92;83.03
84815;BME280;75050;53.190;5.562;2024-03-02T10:43:56;100316.53;;;10.94;82.83
84815;BME280;75050;53.190;5.562;2024-03-02T10:46:28;100310.50;;;10.94;82.54
84815;BME280;75050;53.190;5.562;2024-03-02T10:48:57;100327.34;;;11.01;82.81
84815;BME280;75050;53.190;5.562;2024-03-02T10:51:28;100321.31;;;11.00;82.80
84815;BME280;75050;53.190;5.562;2024-03-02T10:54:00;100317.78;;;11.01;82.91
84815;BME280;75050;53.190;5.562;2024-03-02T10:56:33;100309.44;;;10.96;82.68
84815;BME280;75050;53.190;5.562;2024-03-02T11:02:00;100318.28;;;11.06;82.74
84815;BME280;75050;53.190;5.562;2024-03-02T11:04:27;100314.03;;;11.05;82.69
84815;BME280;75050;53.190;5.562;2024-03-02T11:09:28;100300.47;;;11.00;82.56
84815;BME280;75050;53.190;5.562;2024-03-02T11:14:32;100294.53;;;10.98;82.83
84815;BME280;75050;53.190;5.562;2024-03-02T11:17:00;100306.94;;;11.07;82.50
84815;BME280;75050;53.190;5.562;2024-03-02T11:19:27;100302.34;;;11.10;82.69
84815;BME280;75050;53.190;5.562;2024-03-02T11:21:52;100291.00;;;10.99;82.57
84815;BME280;75050;53.190;5.562;2024-03-02T11:26:47;100315.28;;;11.12;82.48
84815;BME280;75050;53.190;5.562;2024-03-02T11:32:04;100308.81;;;11.05;82.40
84815;BME280;75050;53.190;5.562;2024-03-02T11:34:34;100315.81;;;11.05;82.24
84815;BME280;75050;53.190;5.562;2024-03-02T11:37:03;100307.22;;;11.03;82.06
84815;BME280;75050;53.190;5.562;2024-03-02T11:39:29;100314.13;;;11.04;81.88
84815;BME280;75050;53.190;5.562;2024-03-02T11:41:56;100308.47;;;10.97;81.99
84815;BME280;75050;53.190;5.562;2024-03-02T11:44:22;100308.09;;;11.03;81.96
84815;BME280;75050;53.190;5.562;2024-03-02T11:46:53;100296.31;;;10.98;81.57
84815;BME280;75050;53.190;5.562;2024-03-02T11:49:40;100309.03;;;11.02;81.47
84815;BME280;75050;53.190;5.562;2024-03-02T11:52:08;100305.88;;;10.97;81.27
84815;BME280;75050;53.190;5.562;2024-03-02T11:54:35;100309.25;;;10.99;81.30
84815;BME280;75050;53.190;5.562;2024-03-02T11:57:02;100309.84;;;11.03;81.20
84815;BME280;75050;53.190;5.562;2024-03-02T11:59:29;100301.09;;;10.91;80.99
84815;BME280;75050;53.190;5.562;2024-03-02T12:01:54;100321.13;;;11.03;80.76
84815;BME280;75050;53.190;5.562;2024-03-02T12:04:22;100321.94;;;11.04;80.93
84815;BME280;75050;53.190;5.562;2024-03-02T12:06:54;100325.63;;;11.01;80.49
84815;BME280;75050;53.190;5.562;2024-03-02T12:09:21;100319.44;;;11.02;80.46
84815;BME280;75050;53.190;5.562;2024-03-02T12:11:46;100325.28;;;11.06;80.44
84815;BME280;75050;53.190;5.562;2024-03-02T12:14:12;100323.41;;;11.08;80.18
84815;BME280;75050;53.190;5.562;2024-03-02T12:16:44;100315.69;;;11.06;79.76
84815;BME280;75050;53.190;5.562;2024-03-02T12:19:09;100308.28;;;11.00;79.74
84815;BME280;75050;53.190;5.562;2024-03-02T12:21:35;100297.34;;;10.95;79.42
84815;BME280;75050;53.190;5.562;2024-03-02T12:24:01;100287.84;;;10.94;79.42
84815;BME280;75050;53.190;5.562;2024-03-02T12:26:27;100278.59;;;10.90;79.41
84815;BME280;75050;53.190;5.562;2024-03-02T12:28:53;100297.66;;;11.03;79.34
84815;BME280;75050;53.190;5.562;2024-03-02T12:31:20;100298.59;;;11.14;79.37
84815;BME280;75050;53.190;5.562;2024-03-02T12:33:46;100300.78;;;11.20;79.16
84815;BME280;75050;53.190;5.562;2024-03-02T12:36:13;100301.00;;;11.17;78.93
84815;BME280;75050;53.190;5.562;2024-03-02T12:38:43;100298.06;;;11.22;79.08
84815;BME280;75050;53.190;5.562;2024-03-02T12:41:08;100293.56;;;11.24;78.75
84815;BME280;75050;53.190;5.562;2024-03-02T12:43:34;100296.09;;;11.25;78.50
84815;BME280;75050;53.190;5.562;2024-03-02T12:45:59;100295.25;;;11.25;78.44
84815;BME280;75050;53.190;5.562;2024-03-02T12:48:25;100296.09;;;11.25;78.31
84815;BME280;75050;53.190;5.562;2024-03-02T12:50:51;100296.91;;;11.26;78.24
84815;BME280;75050;53.190;5.562;2024-03-02T12:53:16;100296.81;;;11.27;78.15
84815;BME280;75050;53.190;5.562;2024-03-02T12:55:42;100293.25;;;11.28;77.84
84815;BME280;75050;53.190;5.562;2024-03-02T12:58:17;100280.53;;;11.24;77.68
84815;BME280;75050;53.190;5.562;2024-03-02T13:00:42;100296.72;;;11.29;77.97
84815;BME280;75050;53.190;5.562;2024-03-02T13:03:07;100280.44;;;11.25;77.64
84815;BME280;75050;53.190;5.562;2024-03-02T13:05:33;100281.88;;;11.29;77.39
84815;BME280;75050;53.190;5.562;2024-03-02T13:07:59;100270.00;;;11.25;77.42
84815;BME280;75050;53.190;5.562;2024-03-02T13:10:28;100269.78;;;11.28;77.31
84815;BME280;75050;53.190;5.562;2024-03-02T13:12:54;100285.63;;;11.38;77.21